Jacksonville, Indiana
Current Conditions -  °F | °C
As of 12:55 AM on Thursday 23 Oct 2014 (Local Time) from KPRG Reporting Station
Clear Clear  
Wind Chill: 36°   Ceiling: Unl
Heat Index: 36°   Visibility: 10mi
Dew Point: 36°   Wind: 0mph
Humidity: 99%   Direction: NA
Pressure: 30.27"   Gusts: NA
Location:  39.6513°N, 87.4607°W
Report Text: KPRG 230455Z AUTO 00000KT 10SM CLR 02/02 A3027 RMK AO2 T00220020
Loading
Personal Weather Stations






























Interactive Weather Map
Tropical Storm Tracking
New forecast layout! Learn more

10-Day Weather Forecast

Advertisements
Track Severe Weather on mobile